Time;durP1;ratioP1;P1;durP2;ratioP2;P2;SDS_P1;SDS_P2;PMS_P1;PMS_P2;Temp;Humidity;BMP_temperature;BMP_pressure;BME280_temperature;BME280_humidity;BME280_pressure;Samples;Min_cycle;Max_cycle;Signal;HPM_P1;HPM_P2
2022/01/22 00:00:15;;;;;;;3.00;1.45;;;4.70;99.90;;;;;;5067276;28;20227;-77
2022/01/22 00:02:45;;;;;;;3.05;2.00;;;4.00;99.90;;;;;;5062355;28;20578;-77
2022/01/22 00:05:14;;;;;;;3.83;2.08;;;4.90;99.90;;;;;;5067041;28;20040;-77
2022/01/22 00:07:45;;;;;;;4.70;2.90;;;4.90;99.90;;;;;;5065952;28;20132;-77
2022/01/22 00:10:24;;;;;;;10.70;2.80;;;5.10;99.90;;;;;;5049836;28;20055;-77
2022/01/22 00:15:22;;;;;;;5.80;3.20;;;5.30;99.90;;;;;;5071502;28;20562;-77
2022/01/22 00:17:55;;;;;;;13.63;3.38;;;4.90;99.90;;;;;;5062508;28;20040;-76
2022/01/22 00:20:28;;;;;;;4.40;3.08;;;5.20;99.90;;;;;;5066625;28;20591;-76
2022/01/22 00:23:01;;;;;;;6.30;2.90;;;5.60;99.90;;;;;;5072344;28;20040;-76
2022/01/22 00:25:30;;;;;;;5.95;3.50;;;5.00;99.90;;;;;;5068368;28;20033;-77
2022/01/22 00:28:01;;;;;;;6.40;3.83;;;5.00;99.90;;;;;;5069710;28;22003;-76
2022/01/22 00:30:27;;;;;;;3.83;2.92;;;5.10;99.90;;;;;;5074824;28;20156;-77
2022/01/22 00:33:08;;;;;;;8.05;3.35;;;5.10;99.90;;;;;;5072585;28;20036;-77
2022/01/22 00:35:40;;;;;;;3.50;2.70;;;5.60;99.90;;;;;;5070598;28;20103;-77
2022/01/22 00:38:16;;;;;;;7.00;3.17;;;5.10;99.90;;;;;;5062416;28;20056;-77
2022/01/22 00:40:49;;;;;;;9.65;3.30;;;5.10;99.90;;;;;;5068427;28;20052;-78
2022/01/22 00:43:30;;;;;;;9.20;3.50;;;5.40;99.90;;;;;;5074296;28;20070;-77
2022/01/22 00:46:13;;;;;;;5.70;2.60;;;5.10;99.90;;;;;;5065108;28;20063;-78
2022/01/22 00:48:53;;;;;;;5.82;3.22;;;4.70;99.90;;;;;;5066829;28;20048;-77
2022/01/22 00:51:25;;;;;;;4.45;2.53;;;5.30;99.90;;;;;;5068298;28;20504;-77
2022/01/22 00:54:01;;;;;;;;;;;5.50;99.90;;;;;;5068683;28;20044;-76
2022/01/22 00:56:32;;;;;;;5.00;3.03;;;5.20;99.90;;;;;;5071240;28;20002;-77
2022/01/22 00:59:01;;;;;;;4.10;2.67;;;5.20;99.90;;;;;;5064327;28;20037;-77
2022/01/22 01:01:38;;;;;;;3.17;2.55;;;5.50;99.90;;;;;;5065427;28;20052;-77
2022/01/22 01:04:07;;;;;;;5.13;2.40;;;5.40;99.90;;;;;;5072760;28;20457;-77
2022/01/22 01:06:42;;;;;;;7.38;2.15;;;6.00;99.90;;;;;;5073343;28;20062;-77
2022/01/22 01:09:17;;;;;;;4.63;2.50;;;5.40;99.90;;;;;;5082154;27;20041;-77
2022/01/22 01:11:56;;;;;;;3.00;1.60;;;5.30;99.90;;;;;;5067642;28;20107;-77
2022/01/22 01:14:42;;;;;;;3.85;2.05;;;5.40;99.90;;;;;;5067061;28;20036;-77
2022/01/22 01:17:23;;;;;;;2.90;2.33;;;5.40;99.90;;;;;;5067107;28;20110;-77
2022/01/22 01:34:24;;;;;;;4.47;2.55;;;5.60;99.90;;;;;;5078288;28;20048;-77
2022/01/22 01:36:54;;;;;;;3.08;2.22;;;5.60;99.90;;;;;;5069299;28;20056;-77
2022/01/22 01:39:32;;;;;;;5.47;3.00;;;5.60;99.90;;;;;;5073546;28;20045;-77
2022/01/22 01:42:11;;;;;;;4.82;2.58;;;5.50;99.90;;;;;;5068890;28;20092;-77
2022/01/22 01:44:48;;;;;;;2.40;1.77;;;5.60;99.90;;;;;;5069456;28;20045;-77
2022/01/22 01:47:18;;;;;;;3.45;1.98;;;5.40;99.90;;;;;;5066630;28;20165;-76
2022/01/22 01:49:56;;;;;;;4.10;1.98;;;5.60;99.90;;;;;;5067373;28;20164;-77
2022/01/22 01:52:35;;;;;;;6.50;2.22;;;6.00;99.90;;;;;;5066710;28;20040;-76
2022/01/22 01:55:15;;;;;;;2.20;1.77;;;4.10;99.90;;;;;;5064336;28;20601;-77
2022/01/22 01:57:46;;;;;;;2.22;1.48;;;5.50;99.90;;;;;;5065752;28;20067;-77
2022/01/22 02:00:26;;;;;;;5.20;1.63;;;5.40;99.90;;;;;;5066525;28;20040;-76
2022/01/22 02:02:53;;;;;;;6.70;2.30;;;5.40;99.90;;;;;;5060827;28;20502;-77
2022/01/22 02:05:22;;;;;;;3.50;1.85;;;5.70;99.90;;;;;;5068660;28;20927;-77
2022/01/22 02:08:00;;;;;;;5.68;2.33;;;4.30;99.90;;;;;;5070184;28;20037;-76
2022/01/22 02:10:37;;;;;;;3.85;1.80;;;5.60;99.90;;;;;;5066450;28;20666;-76
2022/01/22 02:13:42;;;;;;;4.20;1.95;;;5.50;99.90;;;;;;5066170;28;20983;-77
2022/01/22 02:24:19;;;;;;;4.65;2.38;;;5.80;99.90;;;;;;5064507;28;20115;-77
2022/01/22 02:26:57;;;;;;;3.85;1.75;;;5.50;99.90;;;;;;5069431;28;20052;-77
2022/01/22 02:29:29;;;;;;;5.45;2.15;;;5.60;99.90;;;;;;5064127;28;20065;-76
2022/01/22 02:35:00;;;;;;;3.05;1.73;;;5.60;99.90;;;;;;5072599;28;20299;-76
2022/01/22 02:37:36;;;;;;;3.17;1.85;;;5.40;99.90;;;;;;5066103;28;20036;-77
2022/01/22 02:40:17;;;;;;;2.75;1.70;;;5.70;99.90;;;;;;5068117;28;20847;-77
2022/01/22 02:42:50;;;;;;;2.92;2.25;;;5.60;99.90;;;;;;5068165;28;20044;-77
2022/01/22 02:45:23;;;;;;;6.03;2.40;;;5.10;99.90;;;;;;5067464;28;20833;-77
2022/01/22 02:47:51;;;;;;;3.45;1.70;;;5.70;99.90;;;;;;5068907;28;20107;-77
2022/01/22 02:50:26;;;;;;;3.35;1.65;;;6.70;99.90;;;;;;5068613;28;20087;-77
2022/01/22 02:52:54;;;;;;;4.38;2.28;;;5.80;99.90;;;;;;5070128;28;20045;-77
2022/01/22 02:55:34;;;;;;;3.28;1.88;;;5.50;99.90;;;;;;5069312;28;21302;-77
2022/01/22 02:58:02;;;;;;;4.40;2.55;;;5.80;99.90;;;;;;5072489;28;20493;-77
2022/01/22 03:00:33;;;;;;;5.97;2.00;;;5.50;99.90;;;;;;5065678;28;20063;-76
2022/01/22 03:03:11;;;;;;;3.45;1.75;;;5.60;99.90;;;;;;5073791;28;20043;-76
2022/01/22 03:05:47;;;;;;;3.47;1.77;;;5.50;99.90;;;;;;5063941;28;20045;-76
2022/01/22 03:08:27;;;;;;;5.78;1.73;;;6.20;99.90;;;;;;5065683;28;20048;-76
2022/01/22 03:10:54;;;;;;;2.55;1.20;;;5.60;99.90;;;;;;5066496;28;20505;-76
2022/01/22 03:14:07;;;;;;;3.17;1.30;;;6.50;99.90;;;;;;5068154;28;20037;-76
2022/01/22 03:19:08;;;;;;;3.13;1.70;;;5.50;99.90;;;;;;5072269;28;20049;-77
2022/01/22 03:21:42;;;;;;;3.85;1.63;;;6.10;99.90;;;;;;5068156;28;20582;-76
2022/01/22 03:29:53;;;;;;;2.15;1.02;;;5.60;99.90;;;;;;5073605;28;20092;-76
2022/01/22 03:32:36;;;;;;;5.00;1.88;;;5.60;99.90;;;;;;5071743;28;20127;-76
2022/01/22 03:38:07;;;;;;;2.25;1.17;;;4.20;99.90;;;;;;5070421;28;20036;-76
2022/01/22 03:40:41;;;;;;;1.77;1.20;;;4.20;99.90;;;;;;5069243;28;20052;-76
2022/01/22 03:43:09;;;;;;;2.15;1.13;;;5.70;99.90;;;;;;5068490;28;20059;-76
2022/01/22 03:45:54;;;;;;;6.70;1.70;;;5.80;99.90;;;;;;5068790;28;20060;-76
2022/01/22 03:48:27;;;;;;;3.25;1.40;;;5.60;99.90;;;;;;5065482;28;20075;-76
2022/01/22 03:50:58;;;;;;;1.33;1.23;;;5.30;99.90;;;;;;5070423;28;20041;-76
2022/01/22 03:53:36;;;;;;;6.45;1.70;;;5.60;99.90;;;;;;5062496;28;20122;-76
2022/01/22 03:56:05;;;;;;;2.42;1.40;;;5.20;99.90;;;;;;5069656;28;20040;-76
2022/01/22 03:58:43;;;;;;;1.73;1.50;;;5.60;99.90;;;;;;5069777;28;20041;-76
2022/01/22 04:09:45;;;;;;;6.00;1.55;;;4.40;99.90;;;;;;5070910;28;20045;-76
2022/01/22 04:12:28;;;;;;;2.58;1.65;;;5.60;99.90;;;;;;5068059;28;20054;-76
2022/01/22 04:15:06;;;;;;;5.03;1.33;;;5.90;99.90;;;;;;5062803;28;20780;-77
2022/01/22 04:25:35;;;;;;;3.85;1.75;;;5.70;99.90;;;;;;5070108;28;20048;-77
2022/01/22 04:28:12;;;;;;;2.72;2.15;;;5.00;99.90;;;;;;5062332;28;20132;-76
2022/01/22 04:30:43;;;;;;;4.20;1.45;;;5.70;99.90;;;;;;5065625;28;20051;-77
2022/01/22 04:33:14;;;;;;;8.73;1.77;;;5.70;99.90;;;;;;5066912;28;20045;-77
2022/01/22 04:35:50;;;;;;;3.30;1.30;;;5.90;99.90;;;;;;5068266;28;20029;-76
2022/01/22 04:38:18;;;;;;;3.47;1.55;;;5.90;99.90;;;;;;5069905;28;20350;-76
2022/01/22 04:40:52;;;;;;;5.15;2.25;;;5.00;99.90;;;;;;5071852;28;20578;-76
2022/01/22 04:43:35;;;;;;;6.85;1.45;;;5.60;99.90;;;;;;5074088;28;20043;-76
2022/01/22 04:46:36;;;;;;;3.80;1.17;;;6.10;99.90;;;;;;5068200;28;20056;-77
2022/01/22 04:55:04;;;;;;;1.75;1.25;;;6.10;99.90;;;;;;5028717;28;20057;-76
2022/01/22 04:57:42;;;;;;;4.93;1.60;;;5.20;99.90;;;;;;5067817;27;20041;-78
2022/01/22 05:00:17;;;;;;;2.17;1.17;;;5.90;99.90;;;;;;5072799;28;20045;-77
2022/01/22 05:02:53;;;;;;;4.45;1.92;;;5.70;99.90;;;;;;5069047;28;20044;-77
2022/01/22 05:05:27;;;;;;;3.88;1.58;;;7.50;99.90;;;;;;5070311;28;20123;-77
2022/01/22 05:08:01;;;;;;;6.75;1.80;;;5.80;99.90;;;;;;5070540;28;20037;-77
2022/01/22 05:10:30;;;;;;;4.20;1.60;;;5.70;99.90;;;;;;5062528;28;20119;-77
2022/01/22 05:12:59;;;;;;;3.53;1.77;;;5.70;99.90;;;;;;5065988;28;20117;-77
2022/01/22 05:15:31;;;;;;;6.50;1.63;;;5.90;99.90;;;;;;5067975;28;20053;-77
2022/01/22 05:18:16;;;;;;;1.92;1.40;;;5.90;99.90;;;;;;5070912;28;20071;-77
2022/01/22 05:20:53;;;;;;;3.20;1.55;;;6.00;99.90;;;;;;5067758;28;20055;-76
2022/01/22 05:23:31;;;;;;;2.90;1.58;;;5.70;99.90;;;;;;5070321;28;20155;-77
2022/01/22 05:26:05;;;;;;;2.92;1.90;;;6.00;99.90;;;;;;5065067;28;20553;-76
2022/01/22 05:31:53;;;;;;;2.42;1.60;;;5.90;99.90;;;;;;5064805;28;20136;-76
2022/01/22 05:37:23;;;;;;;2.25;1.23;;;5.60;99.90;;;;;;5065966;28;20040;-76
2022/01/22 05:39:56;;;;;;;5.75;2.10;;;5.70;99.90;;;;;;5069299;28;20496;-76
2022/01/22 05:42:25;;;;;;;2.25;1.92;;;5.80;99.90;;;;;;5067763;28;20044;-77
2022/01/22 05:44:57;;;;;;;1.58;1.02;;;5.90;99.90;;;;;;5065476;28;20041;-76
2022/01/22 05:47:31;;;;;;;5.35;1.83;;;6.30;99.90;;;;;;5065650;28;20040;-76
2022/01/22 05:50:09;;;;;;;2.50;1.95;;;5.70;99.90;;;;;;5063783;28;20049;-76
2022/01/22 05:53:01;;;;;;;3.10;1.80;;;6.80;99.90;;;;;;5072018;28;20520;-76
2022/01/22 06:01:07;;;;;;;4.97;1.85;;;6.50;99.90;;;;;;5069976;28;20044;-77
2022/01/22 06:03:34;;;;;;;5.55;2.20;;;5.70;99.90;;;;;;5067926;28;20121;-76
2022/01/22 06:06:05;;;;;;;4.72;2.17;;;6.20;99.90;;;;;;5067624;28;20055;-76
2022/01/22 06:08:46;;;;;;;2.47;1.90;;;5.70;99.90;;;;;;5068530;28;20045;-77
2022/01/22 06:11:29;;;;;;;7.57;2.55;;;5.90;99.90;;;;;;5063110;28;20059;-76
2022/01/22 06:13:57;;;;;;;7.03;2.00;;;6.40;99.90;;;;;;5066895;28;20076;-76
2022/01/22 06:16:32;;;;;;;3.35;2.42;;;5.70;99.90;;;;;;5064530;28;20103;-77
2022/01/22 06:19:00;;;;;;;4.03;2.35;;;5.70;99.90;;;;;;5069739;28;20079;-77
2022/01/22 06:21:35;;;;;;;3.13;1.92;;;5.90;99.90;;;;;;5064495;28;20049;-77
2022/01/22 06:24:06;;;;;;;6.50;2.50;;;5.70;99.90;;;;;;5069067;28;20510;-77
2022/01/22 06:26:49;;;;;;;4.40;2.80;;;5.90;99.90;;;;;;5063588;28;20037;-77
2022/01/22 06:29:15;;;;;;;3.15;1.90;;;5.70;99.90;;;;;;5067571;28;20060;-77
2022/01/22 06:31:47;;;;;;;3.55;1.98;;;6.70;99.90;;;;;;5068646;28;20147;-77
2022/01/22 06:34:18;;;;;;;3.25;1.55;;;6.10;99.90;;;;;;5069282;28;20957;-76
2022/01/22 06:36:50;;;;;;;3.40;1.90;;;6.00;99.90;;;;;;5068054;28;20045;-76
2022/01/22 06:39:20;;;;;;;7.18;2.78;;;5.70;99.90;;;;;;5068073;28;20051;-77
2022/01/22 06:41:48;;;;;;;5.35;2.50;;;5.90;99.90;;;;;;5062015;28;20541;-77
2022/01/22 06:44:34;;;;;;;4.45;2.60;;;5.80;99.90;;;;;;5066494;28;20044;-77
2022/01/22 06:47:08;;;;;;;3.15;1.42;;;5.90;99.90;;;;;;5063746;28;20075;-77
2022/01/22 06:49:40;;;;;;;5.47;2.80;;;5.70;99.90;;;;;;5065080;28;20049;-77
2022/01/22 06:52:09;;;;;;;5.75;2.80;;;5.80;99.90;;;;;;5064177;28;20075;-77
2022/01/22 06:54:38;;;;;;;5.40;2.35;;;5.90;99.90;;;;;;5062685;28;20045;-77
2022/01/22 06:57:13;;;;;;;5.80;2.28;;;5.80;99.90;;;;;;5066103;28;20955;-78
2022/01/22 06:59:49;;;;;;;7.72;2.95;;;5.80;99.90;;;;;;5044524;28;20051;-77
2022/01/22 07:02:28;;;;;;;4.60;3.70;;;5.80;99.90;;;;;;5069271;28;20048;-77
2022/01/22 07:04:59;;;;;;;4.38;2.75;;;5.80;99.90;;;;;;5071458;28;20044;-79
2022/01/22 07:07:27;;;;;;;5.10;2.72;;;7.70;99.90;;;;;;5064402;28;20079;-77
2022/01/22 07:10:09;;;;;;;3.97;2.60;;;5.90;99.90;;;;;;5067902;28;20463;-77
2022/01/22 07:12:36;;;;;;;3.67;2.17;;;6.20;99.90;;;;;;5066808;28;20049;-77
2022/01/22 07:15:08;;;;;;;6.22;1.98;;;5.00;99.90;;;;;;5071848;28;20720;-84
2022/01/22 07:17:40;;;;;;;9.40;2.67;;;5.80;99.90;;;;;;5068008;28;20045;-77
2022/01/22 07:20:25;;;;;;;3.95;2.08;;;5.90;99.90;;;;;;5068132;28;20048;-79
2022/01/22 07:23:00;;;;;;;3.35;2.40;;;5.80;99.90;;;;;;5066492;28;20120;-75
2022/01/22 07:25:32;;;;;;;3.70;2.17;;;5.90;99.90;;;;;;5066209;28;21082;-74
2022/01/22 07:28:03;;;;;;;6.03;2.72;;;7.10;99.90;;;;;;5067324;28;20052;-76
2022/01/22 07:30:44;;;;;;;3.07;1.77;;;5.80;99.90;;;;;;5072905;28;20060;-75
2022/01/22 07:33:13;;;;;;;2.85;1.73;;;6.20;99.90;;;;;;5085022;27;20094;-76
2022/01/22 07:35:39;;;;;;;4.03;2.50;;;5.80;99.90;;;;;;5068777;28;20119;-75
2022/01/22 07:38:11;;;;;;;2.50;2.28;;;5.70;99.90;;;;;;5072843;28;22074;-75
2022/01/22 07:40:49;;;;;;;3.60;1.50;;;5.80;99.90;;;;;;5069652;28;20137;-76
2022/01/22 07:43:29;;;;;;;6.32;2.70;;;5.80;99.90;;;;;;5071504;28;20056;-76
2022/01/22 07:46:03;;;;;;;2.72;1.80;;;6.00;99.90;;;;;;5072789;28;20167;-75
2022/01/22 07:48:32;;;;;;;4.55;2.10;;;5.30;99.90;;;;;;5072465;28;20068;-75
2022/01/22 07:51:06;;;;;;;2.65;1.75;;;6.00;99.90;;;;;;5073901;28;20055;-75
2022/01/22 07:53:32;;;;;;;4.07;2.05;;;5.80;99.90;;;;;;5074430;28;20437;-75
2022/01/22 07:56:16;;;;;;;4.15;2.58;;;7.20;99.90;;;;;;5075055;28;20132;-75
2022/01/22 07:58:51;;;;;;;2.75;2.22;;;5.70;99.90;;;;;;5067211;28;20048;-75
2022/01/22 08:01:26;;;;;;;3.42;1.92;;;5.90;99.90;;;;;;5064325;28;20120;-76
2022/01/22 08:04:17;;;;;;;6.10;1.58;;;5.90;99.90;;;;;;5066743;28;20041;-75
2022/01/22 08:06:47;;;;;;;6.03;2.33;;;7.00;99.90;;;;;;5072272;28;20126;-75
2022/01/22 08:09:42;;;;;;;2.63;1.70;;;6.00;99.90;;;;;;5067243;28;20048;-75
2022/01/22 08:12:15;;;;;;;6.25;1.70;;;5.90;99.90;;;;;;5056563;28;20045;-74
2022/01/22 08:14:49;;;;;;;2.72;2.08;;;6.20;99.90;;;;;;5072415;28;20057;-75
2022/01/22 08:17:28;;;;;;;4.97;2.03;;;6.00;99.90;;;;;;5075725;28;20550;-75
2022/01/22 08:19:59;;;;;;;4.65;2.63;;;6.30;99.90;;;;;;5066077;28;20037;-75
2022/01/22 08:22:31;;;;;;;4.38;2.83;;;6.00;99.90;;;;;;5072411;28;20060;-75
2022/01/22 08:25:04;;;;;;;3.35;1.80;;;5.50;99.90;;;;;;5068686;28;20041;-75
2022/01/22 08:30:26;;;;;;;4.60;2.40;;;6.50;99.90;;;;;;5074169;28;20807;-75
2022/01/22 08:35:55;;;;;;;7.32;2.20;;;6.00;99.90;;;;;;5073003;28;20044;-75
2022/01/22 08:38:28;;;;;;;4.93;2.03;;;6.30;99.90;;;;;;5069626;28;20091;-75
2022/01/22 08:41:01;;;;;;;3.45;2.20;;;6.10;99.90;;;;;;5069595;28;20671;-75
2022/01/22 08:43:48;;;;;;;2.60;1.50;;;6.30;99.90;;;;;;5074560;28;20045;-75
2022/01/22 08:46:17;;;;;;;3.05;1.90;;;6.10;99.90;;;;;;5071505;28;20680;-75
2022/01/22 08:48:52;;;;;;;2.60;2.13;;;6.30;99.90;;;;;;5071009;28;20989;-74
2022/01/22 08:51:21;;;;;;;4.72;2.63;;;6.10;99.90;;;;;;5071247;28;20048;-75
2022/01/22 08:53:48;;;;;;;5.18;2.67;;;5.70;99.90;;;;;;5068975;28;20126;-75
2022/01/22 08:56:21;;;;;;;4.47;2.33;;;6.00;99.90;;;;;;5068117;28;20137;-74
2022/01/22 08:58:54;;;;;;;6.43;2.20;;;6.20;99.90;;;;;;5070667;28;20087;-74
2022/01/22 09:01:26;;;;;;;3.90;2.10;;;5.90;99.90;;;;;;5069217;28;20051;-74
2022/01/22 09:03:58;;;;;;;;;;;6.30;99.90;;;;;;5072845;28;20559;-74
2022/01/22 09:06:28;;;;;;;4.63;2.25;;;6.40;99.90;;;;;;5071853;28;19920;-76
2022/01/22 09:09:00;;;;;;;4.40;2.35;;;6.40;99.90;;;;;;5069177;28;20061;-76
2022/01/22 09:11:25;;;;;;;5.00;2.42;;;6.50;99.90;;;;;;5069083;28;20396;-74
2022/01/22 09:13:53;;;;;;;4.20;2.47;;;6.30;99.90;;;;;;5065863;28;20081;-76
2022/01/22 09:16:19;;;;;;;6.32;2.72;;;6.30;99.90;;;;;;5069279;28;20128;-75
2022/01/22 09:18:47;;;;;;;3.25;2.63;;;6.50;99.90;;;;;;5068937;28;20043;-75
2022/01/22 09:21:15;;;;;;;3.97;2.25;;;6.30;99.90;;;;;;5068566;28;20041;-75
2022/01/22 09:23:47;;;;;;;3.03;2.00;;;6.20;99.90;;;;;;5071283;28;21796;-77
2022/01/22 09:26:16;;;;;;;10.50;2.92;;;6.40;99.90;;;;;;5070354;28;20837;-78
2022/01/22 09:28:47;;;;;;;5.30;2.63;;;6.40;99.90;;;;;;5069693;28;20548;-77
2022/01/22 09:31:14;;;;;;;4.25;2.17;;;6.50;99.90;;;;;;5068603;28;20044;-76
2022/01/22 09:33:41;;;;;;;8.27;2.63;;;6.40;99.90;;;;;;5073194;28;20055;-76
2022/01/22 09:36:07;;;;;;;7.55;3.08;;;6.50;99.90;;;;;;5069743;28;20037;-76
2022/01/22 09:38:33;;;;;;;7.00;3.33;;;6.50;99.90;;;;;;5070333;28;20037;-76
2022/01/22 09:41:00;;;;;;;4.68;2.45;;;6.50;99.90;;;;;;5072279;28;20048;-77
2022/01/22 09:43:26;;;;;;;7.47;2.97;;;6.50;99.90;;;;;;5070277;28;20040;-76
2022/01/22 09:45:54;;;;;;;8.10;3.38;;;6.60;99.90;;;;;;5069205;28;20083;-77
2022/01/22 09:48:23;;;;;;;5.93;3.47;;;6.50;99.90;;;;;;5069678;28;20099;-76
2022/01/22 09:50:49;;;;;;;6.60;2.88;;;6.70;99.90;;;;;;5071980;28;20992;-77
2022/01/22 09:53:15;;;;;;;6.55;3.00;;;6.90;99.90;;;;;;5063922;28;20040;-76
2022/01/22 09:55:43;;;;;;;5.25;3.20;;;6.50;99.90;;;;;;5069880;28;20040;-77
2022/01/22 09:58:09;;;;;;;4.35;2.95;;;6.80;99.90;;;;;;5069532;28;20123;-76
2022/01/22 10:00:38;;;;;;;4.43;2.65;;;6.60;99.90;;;;;;5072196;28;20465;-75
2022/01/22 10:03:19;;;;;;;5.70;2.50;;;6.60;99.90;;;;;;5068094;28;20152;-76
2022/01/22 10:05:49;;;;;;;7.43;3.60;;;6.70;99.90;;;;;;5066621;28;20580;-78
2022/01/22 10:08:36;;;;;;;5.10;3.20;;;6.60;99.90;;;;;;5063260;28;20148;-78
2022/01/22 10:11:03;;;;;;;8.50;3.42;;;6.90;99.90;;;;;;5069461;28;20127;-78
2022/01/22 10:13:56;;;;;;;5.88;2.65;;;6.80;99.90;;;;;;5069875;28;20048;-79
2022/01/22 10:16:48;;;;;;;5.15;3.25;;;8.60;99.90;;;;;;5070902;28;20045;-81
2022/01/22 10:19:20;;;;;;;6.50;2.35;;;6.70;99.90;;;;;;5068739;28;20055;-76
2022/01/22 10:21:58;;;;;;;9.15;3.30;;;7.80;99.90;;;;;;5073217;28;20079;-76
2022/01/22 10:24:36;;;;;;;4.90;2.75;;;6.80;99.90;;;;;;5066600;28;20164;-76
2022/01/22 10:27:37;;;;;;;5.43;2.70;;;8.30;99.90;;;;;;5069939;28;20055;-76
2022/01/22 10:30:16;;;;;;;7.30;3.45;;;6.80;99.90;;;;;;5057812;28;20103;-76
2022/01/22 10:35:19;;;;;;;6.57;2.67;;;6.60;99.90;;;;;;5058257;28;20565;-76
2022/01/22 10:37:45;;;;;;;5.30;2.90;;;6.80;99.90;;;;;;5023094;28;20056;-76
2022/01/22 10:40:36;;;;;;;4.13;2.45;;;6.80;99.90;;;;;;5030405;28;20052;-76
2022/01/22 10:43:16;;;;;;;5.07;3.00;;;6.90;99.90;;;;;;5029840;28;20045;-76
2022/01/22 10:46:31;;;;;;;7.00;3.60;;;7.00;99.90;;;;;;5029591;28;20057;-76
2022/01/22 10:49:24;;;;;;;6.70;2.83;;;6.90;99.90;;;;;;5033174;28;20635;-76
2022/01/22 10:51:54;;;;;;;6.80;3.45;;;6.90;99.90;;;;;;5024331;28;20050;-76
2022/01/22 10:54:23;;;;;;;5.82;3.03;;;6.90;99.90;;;;;;5035018;28;20037;-76
2022/01/22 10:56:50;;;;;;;7.53;3.40;;;7.00;99.90;;;;;;5031606;28;20047;-76
2022/01/22 10:59:19;;;;;;;6.63;3.63;;;6.90;99.90;;;;;;5031626;28;20115;-75
2022/01/22 11:01:51;;;;;;;5.15;3.20;;;7.10;99.90;;;;;;5033606;28;20033;-76
2022/01/22 11:04:29;;;;;;;6.68;3.45;;;7.10;99.90;;;;;;5040268;28;20072;-79
2022/01/22 11:07:14;;;;;;;6.53;3.08;;;7.80;99.90;;;;;;5033918;28;20136;-78
2022/01/22 11:09:40;;;;;;;7.65;3.55;;;7.10;99.90;;;;;;5027443;28;20176;-79
2022/01/22 11:12:06;;;;;;;6.93;3.42;;;7.20;99.90;;;;;;5031585;28;20422;-79
2022/01/22 11:14:35;;;;;;;10.45;3.80;;;7.30;99.90;;;;;;5031377;28;20037;-79
2022/01/22 11:17:05;;;;;;;8.43;4.35;;;7.20;99.90;;;;;;5042568;28;20207;-79
2022/01/22 11:19:34;;;;;;;9.93;4.03;;;7.30;99.90;;;;;;5038045;28;20046;-79
2022/01/22 11:22:13;;;;;;;7.75;4.00;;;7.20;99.90;;;;;;5052664;28;20060;-79
2022/01/22 11:24:41;;;;;;;5.03;2.97;;;7.20;99.90;;;;;;5034003;28;20038;-79
2022/01/22 11:27:10;;;;;;;6.53;3.60;;;7.20;99.90;;;;;;5053465;28;20045;-79
2022/01/22 11:29:51;;;;;;;6.60;3.63;;;7.20;99.90;;;;;;5053796;28;20099;-79
2022/01/22 11:32:21;;;;;;;5.75;2.88;;;8.20;99.90;;;;;;5070443;28;20494;-79
2022/01/22 11:34:50;;;;;;;5.63;4.47;;;7.20;99.90;;;;;;5064173;28;20466;-79
2022/01/22 11:37:27;;;;;;;6.00;3.10;;;7.50;99.90;;;;;;5072425;28;20041;-79
2022/01/22 11:40:13;;;;;;;6.25;3.80;;;7.40;99.90;;;;;;5062843;28;20095;-79
2022/01/22 11:45:31;;;;;;;6.40;3.63;;;7.40;99.90;;;;;;5073727;28;20701;-79
2022/01/22 11:48:11;;;;;;;6.32;3.42;;;7.40;99.90;;;;;;5065203;28;20049;-79
2022/01/22 11:50:37;;;;;;;7.57;4.15;;;7.40;99.90;;;;;;5068820;28;20481;-79
2022/01/22 11:53:22;;;;;;;8.25;3.75;;;7.40;99.90;;;;;;5074488;28;20055;-79
2022/01/22 11:56:09;;;;;;;8.50;4.03;;;7.40;99.90;;;;;;5069386;28;20062;-78
2022/01/22 11:59:00;;;;;;;7.68;3.88;;;7.40;99.90;;;;;;5065038;28;20507;-79
2022/01/22 12:01:38;;;;;;;8.90;4.32;;;7.50;99.90;;;;;;5065583;28;20064;-79
2022/01/22 12:04:09;;;;;;;7.40;3.95;;;7.50;99.90;;;;;;5069144;28;20041;-78
2022/01/22 12:06:37;;;;;;;6.38;3.25;;;6.50;99.90;;;;;;5068789;28;20037;-79
2022/01/22 12:09:11;;;;;;;6.72;3.92;;;7.50;99.90;;;;;;5071601;28;20052;-79
2022/01/22 12:14:51;;;;;;;4.55;2.88;;;7.50;99.90;;;;;;5072153;28;20067;-79
2022/01/22 12:17:39;;;;;;;5.43;3.75;;;7.50;99.90;;;;;;5066363;28;20045;-79
2022/01/22 12:20:18;;;;;;;5.38;3.75;;;7.50;99.90;;;;;;5074277;28;20070;-76
2022/01/22 12:22:44;;;;;;;7.20;3.53;;;7.50;99.90;;;;;;5065100;28;20045;-77
2022/01/22 12:25:16;;;;;;;5.25;3.45;;;7.50;99.90;;;;;;5069450;28;20764;-78
2022/01/22 12:27:55;;;;;;;7.50;4.30;;;7.50;99.90;;;;;;5072834;28;20078;-81
2022/01/22 12:30:36;;;;;;;5.63;3.78;;;7.50;99.90;;;;;;5069338;28;20044;-79
2022/01/22 12:33:02;;;;;;;8.18;4.53;;;7.40;99.90;;;;;;5072903;28;20047;-77
2022/01/22 12:35:37;;;;;;;5.88;4.30;;;7.40;99.90;;;;;;5072723;28;20095;-77
2022/01/22 12:39:15;;;;;;;7.05;4.55;;;7.40;99.90;;;;;;5074327;28;20044;-76
2022/01/22 12:41:33;;;;;;;10.52;4.63;;;7.50;99.90;;;;;;5063702;28;20056;-76
2022/01/22 12:44:08;;;;;;;10.35;4.45;;;7.50;99.90;;;;;;5069384;28;20041;-75
2022/01/22 12:46:35;;;;;;;9.32;4.47;;;7.50;99.90;;;;;;5069855;28;20032;-75
2022/01/22 12:49:07;;;;;;;8.27;4.32;;;7.60;99.90;;;;;;5073808;28;20608;-75
2022/01/22 12:51:34;;;;;;;7.15;4.25;;;7.60;99.90;;;;;;5067468;28;20068;-77
2022/01/22 12:54:00;;;;;;;9.13;5.20;;;7.60;99.90;;;;;;5067689;28;20041;-74
2022/01/22 12:59:08;;;;;;;6.20;3.97;;;7.70;99.90;;;;;;5070100;28;20048;-76
2022/01/22 13:01:36;;;;;;;7.85;4.82;;;7.70;99.90;;;;;;5069269;28;20057;-75
2022/01/22 13:04:05;;;;;;;8.07;4.85;;;7.60;99.90;;;;;;5072918;28;20032;-75
2022/01/22 13:06:49;;;;;;;7.70;3.97;;;7.60;99.90;;;;;;5073040;28;20511;-76
2022/01/22 13:09:15;;;;;;;7.30;4.57;;;7.60;99.90;;;;;;5072472;28;20075;-75
2022/01/22 13:11:49;;;;;;;6.68;3.72;;;7.70;99.90;;;;;;5072283;28;20047;-75
2022/01/22 13:14:30;;;;;;;16.88;4.20;;;7.60;99.90;;;;;;5066875;28;20140;-75
2022/01/22 13:16:56;;;;;;;8.38;3.50;;;7.80;99.90;;;;;;5065401;28;20037;-76
2022/01/22 13:19:28;;;;;;;8.18;4.78;;;7.60;99.90;;;;;;5066473;28;20049;-76
2022/01/22 13:21:59;;;;;;;7.85;4.80;;;7.70;99.90;;;;;;5068590;28;20076;-75
2022/01/22 13:24:27;;;;;;;9.98;3.55;;;7.70;99.90;;;;;;5068728;28;20079;-76
2022/01/22 13:27:12;;;;;;;6.45;4.20;;;7.60;99.90;;;;;;5064386;28;20632;-76
2022/01/22 13:29:45;;;;;;;7.75;4.25;;;7.70;99.90;;;;;;5064188;28;20045;-75
2022/01/22 13:49:18;;;;;;;8.70;4.68;;;7.60;99.90;;;;;;5069959;28;20546;-75
2022/01/22 13:51:45;;;;;;;9.20;5.85;;;7.60;99.90;;;;;;5071726;28;20189;-75
2022/01/22 13:54:11;;;;;;;8.13;4.72;;;7.70;99.90;;;;;;5070424;28;20041;-76
2022/01/22 13:56:56;;;;;;;10.82;4.80;;;7.70;99.90;;;;;;5069280;28;20037;-76
2022/01/22 13:59:28;;;;;;;9.27;4.40;;;7.70;99.90;;;;;;5070493;28;20044;-75
2022/01/22 14:02:28;;;;;;;9.77;4.60;;;7.70;99.90;;;;;;5070249;28;20052;-75
2022/01/22 14:05:07;;;;;;;8.52;4.72;;;7.70;99.90;;;;;;5063446;28;20530;-75
2022/01/22 14:07:38;;;;;;;11.10;4.85;;;7.70;99.90;;;;;;5068235;28;20439;-75
2022/01/22 14:10:08;;;;;;;10.60;4.53;;;7.70;99.90;;;;;;5072532;28;20033;-75
2022/01/22 14:12:55;;;;;;;7.20;4.47;;;7.70;99.90;;;;;;5072963;28;20036;-75
2022/01/22 14:15:23;;;;;;;9.50;5.15;;;7.70;99.90;;;;;;5070720;28;20765;-75
2022/01/22 14:20:54;;;;;;;7.72;4.28;;;7.60;99.90;;;;;;5065990;28;20049;-75
2022/01/22 14:23:29;;;;;;;9.73;4.63;;;7.60;99.90;;;;;;5074574;28;20040;-75
2022/01/22 14:26:03;;;;;;;9.68;4.75;;;7.50;99.90;;;;;;5071037;28;20049;-75
2022/01/22 14:28:41;;;;;;;15.70;5.38;;;7.50;99.90;;;;;;5067135;28;20041;-79
2022/01/22 14:31:20;;;;;;;9.30;5.63;;;7.40;99.90;;;;;;5067251;28;20573;-75
2022/01/22 14:33:46;;;;;;;11.98;5.55;;;7.40;99.90;;;;;;5072881;28;20051;-74
2022/01/22 14:36:18;;;;;;;8.80;5.18;;;7.50;99.90;;;;;;5072684;28;20044;-80
2022/01/22 14:38:56;;;;;;;8.93;4.55;;;8.00;99.90;;;;;;5073402;28;20040;-77
2022/01/22 14:46:52;;;;;;;8.65;4.85;;;7.60;99.90;;;;;;5073695;28;20088;-77
2022/01/22 14:49:21;;;;;;;6.90;4.10;;;7.60;99.90;;;;;;5069378;28;20040;-77
2022/01/22 14:51:47;;;;;;;7.45;4.88;;;7.50;99.90;;;;;;5073702;28;20110;-76
2022/01/22 14:54:12;;;;;;;7.97;5.22;;;7.50;99.90;;;;;;5068279;28;20465;-77
2022/01/22 14:56:38;;;;;;;10.32;4.75;;;7.50;99.90;;;;;;5066689;28;20131;-77
2022/01/22 14:59:04;;;;;;;6.95;4.10;;;7.50;99.90;;;;;;5070424;28;20047;-76
2022/01/22 15:01:30;;;;;;;9.45;5.10;;;7.50;99.90;;;;;;5073031;28;20548;-76
2022/01/22 15:03:55;;;;;;;12.70;5.60;;;7.50;99.90;;;;;;5072368;28;20465;-77
2022/01/22 15:06:21;;;;;;;11.45;4.95;;;7.60;99.90;;;;;;5070976;28;20109;-76
2022/01/22 15:08:47;;;;;;;7.97;5.38;;;7.50;99.90;;;;;;5077286;28;20044;-77
2022/01/22 15:11:13;;;;;;;6.53;4.50;;;7.50;99.90;;;;;;5068033;28;20049;-76
2022/01/22 15:13:38;;;;;;;9.70;5.82;;;7.40;99.90;;;;;;5071899;28;20076;-77
2022/01/22 15:16:04;;;;;;;7.07;4.43;;;7.40;99.90;;;;;;5067213;28;20043;-77
2022/01/22 15:21:14;;;;;;;7.50;4.57;;;7.40;99.90;;;;;;5073441;28;20052;-77
2022/01/22 15:23:40;;;;;;;7.18;4.53;;;7.40;99.90;;;;;;5062524;28;20083;-77
2022/01/22 15:26:06;;;;;;;13.38;5.28;;;7.40;99.90;;;;;;5069027;28;20036;-77
2022/01/22 15:28:42;;;;;;;8.65;4.68;;;7.40;99.90;;;;;;5067265;28;20111;-77
2022/01/22 15:31:16;;;;;;;6.85;4.53;;;7.40;99.90;;;;;;5070559;28;20041;-77